K-storm — V2DV8 — position and weather

sailwx.info

Track history (hours):
 
Tides and Currents Weather Stations Pressure Air Temp Water Temp Dewpoint Dewpoint Depression Visibility Wind Speed Wind Dir Waves Ship Positions

K-storm

Last reported at 2016-May-06 03:27 UTC. Time now 2016-May-06 03:39 UTC.
Position N 26°04' W 080°07'.

Length 254 m; draft 2.1 m.

MMSI: 305350000.

Date/timePositionNaut miles runAvg speedWind from/ knotsBaromVisibWave heightAir tempDewpointWater temp
2016-May-06 03:27N 26°04' W 080°07'1 1.2
2016-May-06 02:33N 26°05' W 080°07'6 5.7
2016-May-06 01:33N 26°02' W 080°01'9 8.9
2016-May-06 00:33N 26°09' W 079°55'10 9.8
2016-May-05 23:33N 26°17' W 079°48'1111.3
2016-May-05 22:33N 26°05' W 079°46'1111.3
2016-May-05 21:33N 25°54' W 079°44'1111.5
2016-May-05 20:33N 25°43' W 079°42'  
2016-Apr-29 23:16N 25°41' W 079°42'913.3
2016-Apr-29 22:33N 25°49' W 079°47'1313.4
2016-Apr-29 21:33N 25°60' W 079°57'1110.5
2016-Apr-29 20:33N 26°05' W 080°07'1 1.1
2016-Apr-29 19:31N 26°04' W 080°07'0 0.0
2016-Apr-29 18:27N 26°04' W 080°07'0 0.0
2016-Apr-29 17:33N 26°04' W 080°07'0 0.0
2016-Apr-29 16:33N 26°04' W 080°07'0 0.0
2016-Apr-29 15:23N 26°04' W 080°07'0 0.0
2016-Apr-29 14:32N 26°04' W 080°07'0 0.0
2016-Apr-29 13:22N 26°04' W 080°07'0 0.0
2016-Apr-29 12:19N 26°04' W 080°07'0 0.0
2016-Apr-29 11:28N 26°04' W 080°07'1 1.0
2016-Apr-29 10:25N 26°05' W 080°07'0 0.0
2016-Apr-29 09:33N 26°05' W 080°07'0 0.0
2016-Apr-29 08:24N 26°05' W 080°07'0 0.0
2016-Apr-29 07:32N 26°05' W 080°07'0 0.0
2016-Apr-29 06:29N 26°05' W 080°07'0 0.0
2016-Apr-29 05:31N 26°05' W 080°07'0 0.0
2016-Apr-29 04:28N 26°05' W 080°07'0 0.0
2016-Apr-29 03:34N 26°05' W 080°07'0 0.0
2016-Apr-29 02:33N 26°05' W 080°07'0 0.0
2016-Apr-29 01:24N 26°05' W 080°07'0 0.0
2016-Apr-29 00:29N 26°05' W 080°07'0 0.0
2016-Apr-28 23:26N 26°05' W 080°07'0 0.0
2016-Apr-28 22:31N 26°05' W 080°07'0 0.0
2016-Apr-28 21:28N 26°05' W 080°07'0 0.0
2016-Apr-28 20:34N 26°05' W 080°07'0 0.0
2016-Apr-28 19:30N 26°05' W 080°07'0 0.0
2016-Apr-28 18:31N 26°05' W 080°07'0 0.0
2016-Apr-28 17:29N 26°05' W 080°07'0 0.0
2016-Apr-28 16:25N 26°05' W 080°07'0 0.0
2016-Apr-28 15:31N 26°05' W 080°07'0 0.0
2016-Apr-28 14:27N 26°05' W 080°07'1 1.2
2016-Apr-28 13:33N 26°04' W 080°07'0 0.0
2016-Apr-28 12:29N 26°04' W 080°07'0 0.0
2016-Apr-28 11:26N 26°04' W 080°07'0 0.0
2016-Apr-28 10:31N 26°04' W 080°07'0 0.0
2016-Apr-28 09:28N 26°04' W 080°07'0 0.0
2016-Apr-28 08:31N 26°04' W 080°07'0 0.0
2016-Apr-28 07:30N 26°04' W 080°07'0 0.0
2016-Apr-28 06:33N 26°04' W 080°07'0 0.3
2016-Apr-28 05:33N 26°04' W 080°07'3 3.2
2016-Apr-28 04:33N 26°04' W 080°03'5 5.2
2016-Apr-28 03:33N 26°00' W 079°59'1414.2
2016-Apr-28 02:33N 25°51' W 079°48'  
Track history (hours):
 
Tides and Currents Weather Stations Pressure Air Temp Water Temp Dewpoint Dewpoint Depression Visibility Wind Speed Wind Dir Waves Ship Positions

K-storm

Last reported at 2016-May-06 03:27 UTC. Time now 2016-May-06 03:39 UTC.
Position N 26°04' W 080°07'.

Length 254 m; draft 2.1 m.

MMSI: 305350000.

Date/timePositionNaut miles runAvg speedWind from/ knotsBaromVisibWave heightAir tempDewpointWater temp
2016-May-06 03:27N 26°04' W 080°07'1 1.2
2016-May-06 02:33N 26°05' W 080°07'6 5.7
2016-May-06 01:33N 26°02' W 080°01'9 8.9
2016-May-06 00:33N 26°09' W 079°55'10 9.8
2016-May-05 23:33N 26°17' W 079°48'1111.3
2016-May-05 22:33N 26°05' W 079°46'1111.3
2016-May-05 21:33N 25°54' W 079°44'1111.5
2016-May-05 20:33N 25°43' W 079°42'  
2016-Apr-29 23:16N 25°41' W 079°42'913.3
2016-Apr-29 22:33N 25°49' W 079°47'1313.4
2016-Apr-29 21:33N 25°60' W 079°57'1110.5
2016-Apr-29 20:33N 26°05' W 080°07'1 1.1
2016-Apr-29 19:31N 26°04' W 080°07'0 0.0
2016-Apr-29 18:27N 26°04' W 080°07'0 0.0
2016-Apr-29 17:33N 26°04' W 080°07'0 0.0
2016-Apr-29 16:33N 26°04' W 080°07'0 0.0
2016-Apr-29 15:23N 26°04' W 080°07'0 0.0
2016-Apr-29 14:32N 26°04' W 080°07'0 0.0
2016-Apr-29 13:22N 26°04' W 080°07'0 0.0
2016-Apr-29 12:19N 26°04' W 080°07'0 0.0
2016-Apr-29 11:28N 26°04' W 080°07'1 1.0
2016-Apr-29 10:25N 26°05' W 080°07'0 0.0
2016-Apr-29 09:33N 26°05' W 080°07'0 0.0
2016-Apr-29 08:24N 26°05' W 080°07'0 0.0
2016-Apr-29 07:32N 26°05' W 080°07'0 0.0
2016-Apr-29 06:29N 26°05' W 080°07'0 0.0
2016-Apr-29 05:31N 26°05' W 080°07'0 0.0
2016-Apr-29 04:28N 26°05' W 080°07'0 0.0
2016-Apr-29 03:34N 26°05' W 080°07'0 0.0
2016-Apr-29 02:33N 26°05' W 080°07'0 0.0
2016-Apr-29 01:24N 26°05' W 080°07'0 0.0
2016-Apr-29 00:29N 26°05' W 080°07'0 0.0
2016-Apr-28 23:26N 26°05' W 080°07'0 0.0
2016-Apr-28 22:31N 26°05' W 080°07'0 0.0
2016-Apr-28 21:28N 26°05' W 080°07'0 0.0
2016-Apr-28 20:34N 26°05' W 080°07'0 0.0
2016-Apr-28 19:30N 26°05' W 080°07'0 0.0
2016-Apr-28 18:31N 26°05' W 080°07'0 0.0
2016-Apr-28 17:29N 26°05' W 080°07'0 0.0
2016-Apr-28 16:25N 26°05' W 080°07'0 0.0
2016-Apr-28 15:31N 26°05' W 080°07'0 0.0
2016-Apr-28 14:27N 26°05' W 080°07'1 1.2
2016-Apr-28 13:33N 26°04' W 080°07'0 0.0
2016-Apr-28 12:29N 26°04' W 080°07'0 0.0
2016-Apr-28 11:26N 26°04' W 080°07'0 0.0
2016-Apr-28 10:31N 26°04' W 080°07'0 0.0
2016-Apr-28 09:28N 26°04' W 080°07'0 0.0
2016-Apr-28 08:31N 26°04' W 080°07'0 0.0
2016-Apr-28 07:30N 26°04' W 080°07'0 0.0
2016-Apr-28 06:33N 26°04' W 080°07'0 0.3
2016-Apr-28 05:33N 26°04' W 080°07'3 3.2
2016-Apr-28 04:33N 26°04' W 080°03'5 5.2
2016-Apr-28 03:33N 26°00' W 079°59'1414.2
2016-Apr-28 02:33N 25°51' W 079°48'  

Dump ship's entire track history